createdAt,value
2023-02-11T00:00:22.903Z,9.418423
2023-02-11T00:01:22.868Z,9.418418
2023-02-11T00:02:22.907Z,9.418306
2023-02-11T00:03:22.867Z,9.418275
2023-02-11T00:04:22.848Z,9.418386
2023-02-11T00:05:22.837Z,9.418356
2023-02-11T00:06:22.838Z,9.418315
2023-02-11T00:07:22.840Z,9.418355
2023-02-11T00:08:22.812Z,9.418200
2023-02-11T00:09:22.808Z,9.418293
2023-02-11T00:10:22.806Z,9.418531
2023-02-11T00:11:22.854Z,9.418382
2023-02-11T00:12:22.798Z,9.418108
2023-02-11T00:13:22.792Z,9.418256
2023-02-11T00:14:22.783Z,9.418265
2023-02-11T00:15:22.761Z,9.418297
2023-02-11T00:16:22.910Z,9.418308
2023-02-11T00:17:22.781Z,9.418386
2023-02-11T00:18:22.760Z,9.418534
2023-02-11T00:19:22.752Z,9.418454
2023-02-11T00:20:22.773Z,9.418478
2023-02-11T00:21:22.752Z,9.418298
2023-02-11T00:22:22.764Z,9.418353
2023-02-11T00:23:22.729Z,9.418449
2023-02-11T00:24:22.714Z,9.418410
2023-02-11T00:25:22.705Z,9.418443
2023-02-11T00:26:22.696Z,9.418482
2023-02-11T00:27:22.724Z,9.418445
2023-02-11T00:28:22.692Z,9.418439
2023-02-11T00:29:22.680Z,9.418342
2023-02-11T00:30:22.673Z,9.418355
2023-02-11T00:31:22.891Z,9.418322
2023-02-11T00:32:22.748Z,9.418268
2023-02-11T00:33:22.701Z,9.418251
2023-02-11T00:34:22.696Z,9.418378
2023-02-11T00:35:22.702Z,9.418384
2023-02-11T00:36:22.678Z,9.418311
2023-02-11T00:37:22.731Z,9.418233
2023-02-11T00:38:22.683Z,9.418256
2023-02-11T00:39:22.684Z,9.418273
2023-02-11T00:40:22.655Z,9.418304
2023-02-11T00:41:22.643Z,9.418330
2023-02-11T00:42:22.762Z,9.418313
2023-02-11T00:43:22.641Z,9.418333
2023-02-11T00:44:22.647Z,9.418432
2023-02-11T00:45:22.640Z,9.418369
2023-02-11T00:46:22.669Z,9.418422
2023-02-11T00:47:23.382Z,9.418334
2023-02-11T00:48:22.606Z,9.418276
2023-02-11T00:49:22.605Z,9.418345
2023-02-11T00:50:22.579Z,9.418262
2023-02-11T00:51:22.527Z,9.418230
2023-02-11T00:52:22.513Z,9.418279
2023-02-11T00:53:22.606Z,9.418284
2023-02-11T00:54:22.570Z,9.418275
2023-02-11T00:55:22.562Z,9.418346
2023-02-11T00:56:22.554Z,9.418366
2023-02-11T00:57:22.546Z,9.418468
2023-02-11T00:58:22.555Z,9.418393
2023-02-11T00:59:22.524Z,9.418348
2023-02-11T01:00:22.531Z,9.418259
2023-02-11T01:01:22.583Z,9.418254
2023-02-11T01:02:22.511Z,9.418153
2023-02-11T01:03:22.548Z,9.418159
2023-02-11T01:04:22.517Z,9.418404
2023-02-11T01:05:22.551Z,9.418356
2023-02-11T01:06:22.469Z,9.418269
2023-02-11T01:07:22.479Z,9.418325
2023-02-11T01:08:22.508Z,9.418405
2023-02-11T01:09:22.476Z,9.418364
2023-02-11T01:10:22.464Z,9.418255
2023-02-11T01:11:22.453Z,9.418292
2023-02-11T01:12:22.448Z,9.418291
2023-02-11T01:13:22.478Z,9.418276
2023-02-11T01:14:22.460Z,9.418306
2023-02-11T01:15:22.437Z,9.418276
2023-02-11T01:16:22.515Z,9.418275
2023-02-11T01:17:22.392Z,9.418208
2023-02-11T01:18:22.416Z,9.418267
2023-02-11T01:19:22.441Z,9.418282
2023-02-11T01:20:22.394Z,9.418242
2023-02-11T01:21:22.385Z,9.418190
2023-02-11T01:22:22.382Z,9.418283
2023-02-11T01:23:22.389Z,9.418164
2023-02-11T01:24:22.332Z,9.418216
2023-02-11T01:25:22.403Z,9.418254
2023-02-11T01:26:22.373Z,9.418382
2023-02-11T01:27:22.357Z,9.418370
2023-02-11T01:28:22.410Z,9.418505
2023-02-11T01:29:22.359Z,9.418451
2023-02-11T01:30:22.372Z,9.418230
2023-02-11T01:31:22.389Z,9.418251
2023-02-11T01:32:22.321Z,9.418358
2023-02-11T01:33:22.320Z,9.418338
2023-02-11T01:34:22.381Z,9.418328
2023-02-11T01:35:22.318Z,9.418326
2023-02-11T01:36:22.320Z,9.418340
2023-02-11T01:37:22.283Z,9.418340
2023-02-11T01:38:22.297Z,9.418277
2023-02-11T01:39:22.275Z,9.418233
2023-02-11T01:40:22.310Z,9.418154
2023-02-11T01:41:22.252Z,9.418188
2023-02-11T01:42:23.223Z,9.418341
2023-02-11T01:43:22.312Z,9.418158
2023-02-11T01:44:22.238Z,9.418283
2023-02-11T01:45:22.247Z,9.418284
2023-02-11T01:46:22.345Z,9.418307
2023-02-11T01:47:22.225Z,9.418290
2023-02-11T01:48:22.224Z,9.418206
2023-02-11T01:49:22.335Z,9.418216
2023-02-11T01:50:22.194Z,9.418234
2023-02-11T01:51:22.209Z,9.418195
2023-02-11T01:52:22.235Z,9.418259
2023-02-11T01:53:22.832Z,9.418226
2023-02-11T01:54:22.161Z,9.418339
2023-02-11T01:55:22.166Z,9.418277
2023-02-11T01:56:22.165Z,9.418207
2023-02-11T01:57:22.152Z,9.418254
2023-02-11T01:58:22.147Z,9.418288
2023-02-11T01:59:22.131Z,9.418333
2023-02-11T02:00:22.073Z,9.418266
2023-02-11T02:01:22.112Z,9.418250
2023-02-11T02:02:22.064Z,9.418264
2023-02-11T02:03:22.109Z,9.418343
2023-02-11T02:04:22.202Z,9.418292
2023-02-11T02:05:22.033Z,9.418301
2023-02-11T02:06:22.027Z,9.418233
2023-02-11T02:07:22.020Z,9.418304
2023-02-11T02:08:22.015Z,9.418306
2023-02-11T02:09:22.018Z,9.418255
2023-02-11T02:10:22.027Z,9.418290
2023-02-11T02:11:22.029Z,9.418164
2023-02-11T02:12:21.993Z,9.418318
2023-02-11T02:13:21.984Z,9.418422
2023-02-11T02:14:21.977Z,9.418403
2023-02-11T02:15:21.969Z,9.418318
2023-02-11T02:16:22.015Z,9.418331
2023-02-11T02:17:21.945Z,9.418348
2023-02-11T02:18:22.963Z,9.418264
2023-02-11T02:19:21.943Z,9.418255
2023-02-11T02:20:21.931Z,9.418352
2023-02-11T02:21:21.960Z,9.418352
2023-02-11T02:22:22.043Z,9.418170
2023-02-11T02:23:21.925Z,9.418345
2023-02-11T02:24:21.934Z,9.418420
2023-02-11T02:25:21.904Z,9.418324
2023-02-11T02:26:21.910Z,9.418371
2023-02-11T02:27:21.892Z,9.418264
2023-02-11T02:28:21.939Z,9.418298
2023-02-11T02:29:21.875Z,9.418341
2023-02-11T02:30:21.906Z,9.418289
2023-02-11T02:31:21.944Z,9.418330
2023-02-11T02:32:21.859Z,9.418412
2023-02-11T02:33:22.812Z,9.418288
2023-02-11T02:34:22.847Z,9.418319
2023-02-11T02:35:21.830Z,9.418320
2023-02-11T02:36:21.855Z,9.418366
2023-02-11T02:37:21.845Z,9.418315
2023-02-11T02:38:22.897Z,9.418382
2023-02-11T02:39:21.810Z,9.418341
2023-02-11T02:40:21.823Z,9.418329
2023-02-11T02:41:21.819Z,9.418332
2023-02-11T02:42:21.781Z,9.418434
2023-02-11T02:43:21.775Z,9.418445
2023-02-11T02:44:21.823Z,9.418349
2023-02-11T02:45:21.794Z,9.418243
2023-02-11T02:46:21.808Z,9.418265
2023-02-11T02:47:21.771Z,9.418329
2023-02-11T02:48:21.756Z,9.418369
2023-02-11T02:49:22.748Z,9.418253
2023-02-11T02:50:21.735Z,9.418296
2023-02-11T02:51:21.724Z,9.418324
2023-02-11T02:52:21.821Z,9.418371
2023-02-11T02:53:21.723Z,9.418397
2023-02-11T02:54:21.724Z,9.418406
2023-02-11T02:55:21.706Z,9.418440
2023-02-11T02:56:21.748Z,9.418522
2023-02-11T02:57:21.685Z,9.418507
2023-02-11T02:58:21.688Z,9.418442
2023-02-11T02:59:21.720Z,9.418427
2023-02-11T03:00:21.738Z,9.418260
2023-02-11T03:01:21.665Z,9.418219
2023-02-11T03:02:21.672Z,9.418166
2023-02-11T03:03:21.667Z,9.418090
2023-02-11T03:04:21.637Z,9.418311
2023-02-11T03:05:21.639Z,9.418262
2023-02-11T03:06:21.638Z,9.418290
2023-02-11T03:07:21.621Z,9.418210
2023-02-11T03:08:21.621Z,9.418200
2023-02-11T03:09:21.642Z,9.418190
2023-02-11T03:10:21.593Z,9.418215
2023-02-11T03:11:21.589Z,9.418336
2023-02-11T03:12:21.586Z,9.418307
2023-02-11T03:13:21.581Z,9.418282
2023-02-11T03:14:21.599Z,9.418418
2023-02-11T03:15:21.562Z,9.418367
2023-02-11T03:16:21.628Z,9.418346
2023-02-11T03:17:21.553Z,9.418340
2023-02-11T03:18:21.547Z,9.418331
2023-02-11T03:19:21.546Z,9.418218
2023-02-11T03:20:21.549Z,9.418276
2023-02-11T03:21:21.527Z,9.418215
2023-02-11T03:22:21.515Z,9.418290
2023-02-11T03:23:21.518Z,9.418211
2023-02-11T03:24:21.513Z,9.418288
2023-02-11T03:25:21.506Z,9.418360
2023-02-11T03:26:21.504Z,9.418412
2023-02-11T03:27:21.510Z,9.418444
2023-02-11T03:28:21.531Z,9.418410
2023-02-11T03:29:21.462Z,9.418337
2023-02-11T03:30:21.482Z,9.418239
2023-02-11T03:31:21.612Z,9.418212
2023-02-11T03:32:21.460Z,9.418301
2023-02-11T03:33:21.436Z,9.418353
2023-02-11T03:34:21.468Z,9.418368
2023-02-11T03:35:21.463Z,9.418295
2023-02-11T03:36:21.437Z,9.418303
2023-02-11T03:37:21.424Z,9.418285
2023-02-11T03:38:21.442Z,9.418272
2023-02-11T03:39:21.413Z,9.418237
2023-02-11T03:40:21.486Z,9.418305
2023-02-11T03:41:21.389Z,9.418386
2023-02-11T03:42:21.397Z,9.418415
2023-02-11T03:43:21.389Z,9.418314
2023-02-11T03:44:21.383Z,9.418328
2023-02-11T03:45:21.429Z,9.418358
2023-02-11T03:46:21.477Z,9.418310
2023-02-11T03:47:21.383Z,9.418409
2023-02-11T03:48:21.349Z,9.418347
2023-02-11T03:49:21.342Z,9.418308
2023-02-11T03:50:21.342Z,9.418293
2023-02-11T03:51:21.329Z,9.418254
2023-02-11T03:52:21.345Z,9.418314
2023-02-11T03:53:21.357Z,9.418261
2023-02-11T03:54:21.323Z,9.418291
2023-02-11T03:55:21.295Z,9.418229
2023-02-11T03:56:21.297Z,9.418261
2023-02-11T03:57:21.282Z,9.418336
2023-02-11T03:58:21.315Z,9.418376
2023-02-11T03:59:21.315Z,9.418463
2023-02-11T04:00:21.275Z,9.418397
2023-02-11T04:01:21.338Z,9.418389
2023-02-11T04:02:21.254Z,9.418404
2023-02-11T04:03:21.340Z,9.418283
2023-02-11T04:04:21.307Z,9.418239
2023-02-11T04:05:21.226Z,9.418221
2023-02-11T04:06:21.245Z,9.418240
2023-02-11T04:07:21.235Z,9.418192
2023-02-11T04:08:21.212Z,9.418209
2023-02-11T04:09:21.233Z,9.418180
2023-02-11T04:10:21.203Z,9.418152
2023-02-11T04:11:21.204Z,9.418272
2023-02-11T04:12:21.191Z,9.418296
2023-02-11T04:13:21.195Z,9.418267
2023-02-11T04:14:21.181Z,9.418259
2023-02-11T04:15:21.169Z,9.418247
2023-02-11T04:16:21.223Z,9.418264
2023-02-11T04:17:21.147Z,9.418135
2023-02-11T04:18:21.172Z,9.418221
2023-02-11T04:19:21.159Z,9.417963
2023-02-11T04:20:21.147Z,9.418278
2023-02-11T04:21:21.133Z,9.418112
2023-02-11T04:22:21.140Z,9.418611
2023-02-11T04:23:21.107Z,9.417911
2023-02-11T04:24:21.130Z,9.418431
2023-02-11T04:25:21.092Z,9.418451
2023-02-11T04:26:21.086Z,9.418568
2023-02-11T04:27:21.101Z,9.418491
2023-02-11T04:28:21.182Z,9.418456
2023-02-11T04:29:21.096Z,9.418338
2023-02-11T04:30:21.073Z,9.418746
2023-02-11T04:31:21.190Z,9.418485
2023-02-11T04:32:21.054Z,9.418293
2023-02-11T04:33:21.041Z,9.418463
2023-02-11T04:34:21.045Z,9.418303
2023-02-11T04:35:21.052Z,9.418450
2023-02-11T04:36:21.026Z,9.418620
2023-02-11T04:37:21.022Z,9.418523
2023-02-11T04:38:21.007Z,9.418586
2023-02-11T04:39:21.020Z,9.418764
2023-02-11T04:40:21.026Z,9.418565
2023-02-11T04:41:20.997Z,9.418460
2023-02-11T04:42:21.013Z,9.418349
2023-02-11T04:43:20.977Z,9.418202
2023-02-11T04:44:20.978Z,9.418225
2023-02-11T04:45:21.022Z,9.418402
2023-02-11T04:46:21.040Z,9.418362
2023-02-11T04:47:20.962Z,9.418271
2023-02-11T04:48:20.995Z,9.418364
2023-02-11T04:49:20.987Z,9.418402
2023-02-11T04:50:20.973Z,9.418442
2023-02-11T04:51:20.961Z,9.418498
2023-02-11T04:52:20.918Z,9.418425
2023-02-11T04:53:20.920Z,9.418190
2023-02-11T04:54:20.926Z,9.418293
2023-02-11T04:55:20.914Z,9.418336
2023-02-11T04:56:20.898Z,9.418255
2023-02-11T04:57:20.906Z,9.418254
2023-02-11T04:58:20.897Z,9.418378
2023-02-11T04:59:20.879Z,9.418338
2023-02-11T05:00:20.870Z,9.418360
2023-02-11T05:01:20.922Z,9.418417
2023-02-11T05:02:20.868Z,9.418413
2023-02-11T05:03:20.881Z,9.418375
2023-02-11T05:04:20.956Z,9.418344
2023-02-11T05:05:20.887Z,9.418297
2023-02-11T05:06:20.844Z,9.418243
2023-02-11T05:07:20.834Z,9.418288
2023-02-11T05:08:20.820Z,9.418332
2023-02-11T05:09:20.810Z,9.418222
2023-02-11T05:10:20.794Z,9.418216
2023-02-11T05:11:20.793Z,9.418294
2023-02-11T05:12:20.795Z,9.418234
2023-02-11T05:13:20.780Z,9.418245
2023-02-11T05:14:20.789Z,9.418211
2023-02-11T05:15:20.762Z,9.418219
2023-02-11T05:16:20.809Z,9.418146
2023-02-11T05:17:20.747Z,9.418246
2023-02-11T05:18:20.738Z,9.418314
2023-02-11T05:19:20.743Z,9.418328
2023-02-11T05:20:20.744Z,9.418321
2023-02-11T05:21:20.745Z,9.418283
2023-02-11T05:22:20.737Z,9.418311
2023-02-11T05:23:20.716Z,9.418257
2023-02-11T05:24:20.694Z,9.418238
2023-02-11T05:25:20.740Z,9.418312
2023-02-11T05:26:20.712Z,9.418323
2023-02-11T05:27:20.688Z,9.418419
2023-02-11T05:28:20.744Z,9.418331
2023-02-11T05:29:20.688Z,9.418351
2023-02-11T05:30:20.695Z,9.418301
2023-02-11T05:31:20.649Z,9.418283
2023-02-11T05:32:20.658Z,9.418266
2023-02-11T05:33:20.637Z,9.418230
2023-02-11T05:34:20.636Z,9.418302
2023-02-11T05:35:20.633Z,9.418292
2023-02-11T05:36:20.653Z,9.418239
2023-02-11T05:37:20.620Z,9.418322
2023-02-11T05:38:20.610Z,9.418300
2023-02-11T05:39:20.593Z,9.418310
2023-02-11T05:40:21.594Z,9.418229
2023-02-11T05:41:20.608Z,9.418254
2023-02-11T05:42:20.650Z,9.418325
2023-02-11T05:43:20.577Z,9.418354
2023-02-11T05:44:20.561Z,9.418203
2023-02-11T05:45:20.574Z,9.418295
2023-02-11T05:46:20.627Z,9.418320
2023-02-11T05:47:20.570Z,9.418308
2023-02-11T05:48:20.555Z,9.418254
2023-02-11T05:49:20.532Z,9.418281
2023-02-11T05:50:20.526Z,9.418250
2023-02-11T05:51:20.573Z,9.418209
2023-02-11T05:52:20.510Z,9.418204
2023-02-11T05:53:20.526Z,9.418237
2023-02-11T05:54:20.526Z,9.418190
2023-02-11T05:55:20.503Z,9.418204
2023-02-11T05:56:20.568Z,9.418207
2023-02-11T05:57:20.486Z,9.418265
2023-02-11T05:58:20.494Z,9.418360
2023-02-11T05:59:20.474Z,9.418320
2023-02-11T06:00:20.463Z,9.418340
2023-02-11T06:01:20.445Z,9.418298
2023-02-11T06:02:20.492Z,9.418313
2023-02-11T06:03:20.496Z,9.418353
2023-02-11T06:04:20.435Z,9.418223
2023-02-11T06:05:20.421Z,9.418255
2023-02-11T06:06:20.414Z,9.418226
2023-02-11T06:07:20.426Z,9.418296
2023-02-11T06:08:20.409Z,9.418184
2023-02-11T06:09:20.385Z,9.418241
2023-02-11T06:10:20.395Z,9.418264
2023-02-11T06:11:20.395Z,9.418200
2023-02-11T06:12:20.385Z,9.418291
2023-02-11T06:13:20.376Z,9.418591
2023-02-11T06:14:20.396Z,9.418709
2023-02-11T06:15:20.379Z,9.418598
2023-02-11T06:16:20.406Z,9.418430
2023-02-11T06:17:20.342Z,9.418441
2023-02-11T06:18:20.343Z,9.418338
2023-02-11T06:19:20.340Z,9.418268
2023-02-11T06:20:20.342Z,9.418398
2023-02-11T06:21:20.328Z,9.418301
2023-02-11T06:22:20.326Z,9.418269
2023-02-11T06:23:20.326Z,9.418256
2023-02-11T06:24:33.099Z,9.418183
2023-02-11T06:25:22.301Z,9.418410
2023-02-11T06:26:20.282Z,9.418326
2023-02-11T06:27:20.291Z,9.418289
2023-02-11T06:28:20.439Z,9.418275
2023-02-11T06:29:20.258Z,9.418299
2023-02-11T06:30:20.278Z,9.418280
2023-02-11T06:31:20.387Z,9.418220
2023-02-11T06:32:39.290Z,9.418217
2023-02-11T06:33:22.238Z,9.418198
2023-02-11T06:34:20.227Z,9.418267
2023-02-11T06:35:20.264Z,9.418324
2023-02-11T06:36:20.214Z,9.418312
2023-02-11T06:37:20.214Z,9.418135
2023-02-11T06:38:20.215Z,9.418157
2023-02-11T06:39:20.236Z,9.418212
2023-02-11T06:40:20.200Z,9.418411
2023-02-11T06:41:20.218Z,9.418299
2023-02-11T06:42:20.187Z,9.418311
2023-02-11T06:43:21.174Z,9.418201
2023-02-11T06:44:20.200Z,9.418209
2023-02-11T06:45:20.167Z,9.418236
2023-02-11T06:46:20.214Z,9.418189
2023-02-11T06:47:20.148Z,9.418214
2023-02-11T06:48:20.135Z,9.418192
2023-02-11T06:49:20.138Z,9.418297
2023-02-11T06:50:20.136Z,9.418290
2023-02-11T06:51:20.148Z,9.418292
2023-02-11T06:52:20.109Z,9.418290
2023-02-11T06:53:20.116Z,9.418303
2023-02-11T06:54:20.096Z,9.418258
2023-02-11T06:55:20.096Z,9.418213
2023-02-11T06:56:20.072Z,9.418190
2023-02-11T06:57:20.091Z,9.418222
2023-02-11T06:58:20.067Z,9.418230
2023-02-11T06:59:20.063Z,9.418283
2023-02-11T07:00:20.061Z,9.418238
2023-02-11T07:01:20.320Z,9.418300
2023-02-11T07:02:21.119Z,9.418256
2023-02-11T07:03:21.176Z,9.418279
2023-02-11T07:04:20.025Z,9.418212
2023-02-11T07:05:20.016Z,9.418199
2023-02-11T07:06:20.007Z,9.418220
2023-02-11T07:07:20.016Z,9.418193
2023-02-11T07:08:20.014Z,9.418182
2023-02-11T07:09:19.985Z,9.418145
2023-02-11T07:10:19.989Z,9.418271
2023-02-11T07:11:19.975Z,9.418182
2023-02-11T07:12:19.966Z,9.418169
2023-02-11T07:13:19.998Z,9.418207
2023-02-11T07:14:19.956Z,9.418393
2023-02-11T07:15:19.950Z,9.418352
2023-02-11T07:16:19.982Z,9.418380
2023-02-11T07:17:19.937Z,9.418341
2023-02-11T07:18:19.959Z,9.418329
2023-02-11T07:19:20.047Z,9.418383
2023-02-11T07:20:19.936Z,9.418280
2023-02-11T07:21:19.912Z,9.418179
2023-02-11T07:22:19.896Z,9.418136
2023-02-11T07:23:19.903Z,9.417986
2023-02-11T07:24:19.941Z,9.418240
2023-02-11T07:25:19.907Z,9.418171
2023-02-11T07:26:19.889Z,9.418163
2023-02-11T07:27:19.883Z,9.418180
2023-02-11T07:28:19.955Z,9.418255
2023-02-11T07:29:19.885Z,9.418296
2023-02-11T07:30:19.886Z,9.418443
2023-02-11T07:31:20.031Z,9.418278
2023-02-11T07:32:19.963Z,9.418206
2023-02-11T07:33:19.828Z,9.418316
2023-02-11T07:34:19.846Z,9.418319
2023-02-11T07:35:19.844Z,9.418212
2023-02-11T07:36:19.819Z,9.418485
2023-02-11T07:37:19.796Z,9.418172
2023-02-11T07:38:19.810Z,9.418225
2023-02-11T07:39:19.788Z,9.418111
2023-02-11T07:40:19.795Z,9.417990
2023-02-11T07:41:19.786Z,9.418069
2023-02-11T07:42:19.770Z,9.418065
2023-02-11T07:43:19.760Z,9.418175
2023-02-11T07:44:19.762Z,9.418305
2023-02-11T07:45:19.768Z,9.418378
2023-02-11T07:46:19.832Z,9.418324
2023-02-11T07:47:19.742Z,9.418299
2023-02-11T07:48:19.726Z,9.418200
2023-02-11T07:49:20.210Z,9.418176
2023-02-11T07:50:19.726Z,9.418210
2023-02-11T07:51:20.669Z,9.418171
2023-02-11T07:52:19.709Z,9.418263
2023-02-11T07:53:19.699Z,9.418213
2023-02-11T07:54:19.750Z,9.418268
2023-02-11T07:55:19.686Z,9.418217
2023-02-11T07:56:19.672Z,9.418173
2023-02-11T07:57:19.673Z,9.418211
2023-02-11T07:58:19.652Z,9.418185
2023-02-11T07:59:19.652Z,9.418244
2023-02-11T08:00:21.205Z,9.418314
2023-02-11T08:01:20.666Z,9.418300
2023-02-11T08:02:19.663Z,9.418315
2023-02-11T08:03:19.624Z,9.418240
2023-02-11T08:04:19.635Z,9.418268
2023-02-11T08:05:19.611Z,9.418262
2023-02-11T08:06:19.609Z,9.418338
2023-02-11T08:07:19.600Z,9.418329
2023-02-11T08:08:19.605Z,9.418324
2023-02-11T08:09:19.612Z,9.418310
2023-02-11T08:10:19.584Z,9.418374
2023-02-11T08:11:19.608Z,9.418367
2023-02-11T08:12:19.573Z,9.418327
2023-02-11T08:13:19.554Z,9.418278
2023-02-11T08:14:19.554Z,9.418380
2023-02-11T08:15:19.551Z,9.418431
2023-02-11T08:16:19.609Z,9.418494
2023-02-11T08:17:19.523Z,9.418389
2023-02-11T08:18:19.510Z,9.418137
2023-02-11T08:19:19.505Z,9.418198
2023-02-11T08:20:19.500Z,9.418121
2023-02-11T08:21:19.521Z,9.418288
2023-02-11T08:22:19.480Z,9.418480
2023-02-11T08:23:20.486Z,9.418317
2023-02-11T08:24:19.473Z,9.418319
2023-02-11T08:25:19.471Z,9.418363
2023-02-11T08:26:19.475Z,9.418339
2023-02-11T08:27:19.456Z,9.418406
2023-02-11T08:28:19.490Z,9.418236
2023-02-11T08:29:19.460Z,9.418243
2023-02-11T08:30:19.439Z,9.418261
2023-02-11T08:31:19.574Z,9.418393
2023-02-11T08:32:19.528Z,9.418326
2023-02-11T08:33:19.424Z,9.418279
2023-02-11T08:34:19.413Z,9.418212
2023-02-11T08:35:19.419Z,9.418412
2023-02-11T08:36:19.493Z,9.418463
2023-02-11T08:37:19.394Z,9.418469
2023-02-11T08:38:19.382Z,9.418380
2023-02-11T08:39:20.669Z,9.418445
2023-02-11T08:40:20.396Z,9.418448
2023-02-11T08:41:19.402Z,9.418353
2023-02-11T08:42:19.353Z,9.418303
2023-02-11T08:43:19.349Z,9.418337
2023-02-11T08:44:19.357Z,9.418316
2023-02-11T08:45:19.332Z,9.418433
2023-02-11T08:46:19.384Z,9.418344
2023-02-11T08:47:19.326Z,9.418285
2023-02-11T08:48:19.320Z,9.418324
2023-02-11T08:49:19.316Z,9.418289
2023-02-11T08:50:19.298Z,9.418359
2023-02-11T08:51:19.293Z,9.418242
2023-02-11T08:52:19.345Z,9.418344
2023-02-11T08:53:19.277Z,9.418427
2023-02-11T08:54:19.274Z,9.418483
2023-02-11T08:55:19.286Z,9.418463
2023-02-11T08:56:19.267Z,9.418803
2023-02-11T08:57:19.247Z,9.418759
2023-02-11T08:58:19.367Z,9.418900
2023-02-11T08:59:19.237Z,9.418754
2023-02-11T09:00:19.266Z,9.418485
2023-02-11T09:01:21.119Z,9.418552
2023-02-11T09:02:19.274Z,9.418508
2023-02-11T09:03:19.222Z,9.418523
2023-02-11T09:04:19.227Z,9.418423
2023-02-11T09:05:19.202Z,9.418386
2023-02-11T09:06:19.186Z,9.418318
2023-02-11T09:07:19.195Z,9.418289
2023-02-11T09:08:19.190Z,9.418343
2023-02-11T09:09:19.191Z,9.418370
2023-02-11T09:10:19.169Z,9.418308
2023-02-11T09:11:19.168Z,9.418358
2023-02-11T09:12:19.155Z,9.418242
2023-02-11T09:13:19.142Z,9.418354
2023-02-11T09:14:19.161Z,9.418438
2023-02-11T09:15:19.129Z,9.418386
2023-02-11T09:16:19.136Z,9.418372
2023-02-11T09:17:19.129Z,9.418321
2023-02-11T09:18:19.126Z,9.418259
2023-02-11T09:19:19.113Z,9.418305
2023-02-11T09:20:19.110Z,9.418285
2023-02-11T09:21:19.115Z,9.418225
2023-02-11T09:22:19.077Z,9.418265
2023-02-11T09:23:20.073Z,9.418323
2023-02-11T09:24:19.077Z,9.418322
2023-02-11T09:25:19.096Z,9.418438
2023-02-11T09:26:19.058Z,9.418332
2023-02-11T09:27:19.235Z,9.418336
2023-02-11T09:28:19.048Z,9.418390
2023-02-11T09:29:19.061Z,9.418457
2023-02-11T09:30:19.053Z,9.418406
2023-02-11T09:31:19.114Z,9.418352
2023-02-11T09:32:19.045Z,9.418356
2023-02-11T09:33:19.022Z,9.418305
2023-02-11T09:34:19.023Z,9.418311
2023-02-11T09:35:19.022Z,9.418282
2023-02-11T09:36:19.018Z,9.418237
2023-02-11T09:37:19.016Z,9.418242
2023-02-11T09:38:18.994Z,9.418144
2023-02-11T09:39:18.982Z,9.418319
2023-02-11T09:40:18.974Z,9.418266
2023-02-11T09:41:18.974Z,9.418295
2023-02-11T09:42:18.972Z,9.418268
2023-02-11T09:43:18.952Z,9.418282
2023-02-11T09:44:18.947Z,9.418339
2023-02-11T09:45:18.950Z,9.418299
2023-02-11T09:46:18.943Z,9.418292
2023-02-11T09:47:18.931Z,9.418243
2023-02-11T09:48:18.916Z,9.418351
2023-02-11T09:49:18.916Z,9.418314
2023-02-11T09:50:18.902Z,9.418298
2023-02-11T09:51:18.896Z,9.418254
2023-02-11T09:52:18.976Z,9.418243
2023-02-11T09:53:18.883Z,9.418268
2023-02-11T09:54:18.879Z,9.418321
2023-02-11T09:55:18.880Z,9.418364
2023-02-11T09:56:18.872Z,9.418344
2023-02-11T09:57:28.164Z,9.418279
2023-02-11T09:58:20.867Z,9.418212
2023-02-11T09:59:18.875Z,9.418244
2023-02-11T10:00:18.863Z,9.418179
2023-02-11T10:01:20.975Z,9.418250
2023-02-11T10:02:19.847Z,9.418227
2023-02-11T10:03:18.829Z,9.418219
2023-02-11T10:04:18.872Z,9.418149
2023-02-11T10:05:18.815Z,9.418235
2023-02-11T10:06:18.823Z,9.418256
2023-02-11T10:07:18.894Z,9.418294
2023-02-11T10:08:18.791Z,9.418264
2023-02-11T10:09:18.783Z,9.418224
2023-02-11T10:10:18.775Z,9.418242
2023-02-11T10:11:30.951Z,9.418354
2023-02-11T10:12:20.779Z,9.418326
2023-02-11T10:13:18.762Z,9.418242
2023-02-11T10:14:18.756Z,9.418168
2023-02-11T10:15:18.735Z,9.418270
2023-02-11T10:16:18.749Z,9.418278
2023-02-11T10:17:18.828Z,9.418316
2023-02-11T10:18:18.724Z,9.418321
2023-02-11T10:19:18.721Z,9.418325
2023-02-11T10:20:18.703Z,9.418319
2023-02-11T10:21:18.718Z,9.418210
2023-02-11T10:22:18.705Z,9.418204
2023-02-11T10:23:18.696Z,9.418362
2023-02-11T10:24:18.688Z,9.418359
2023-02-11T10:25:18.673Z,9.418537
2023-02-11T10:26:18.685Z,9.418419
2023-02-11T10:27:18.656Z,9.418297
2023-02-11T10:28:18.727Z,9.418232
2023-02-11T10:29:18.651Z,9.418190
2023-02-11T10:30:18.650Z,9.418242
2023-02-11T10:31:18.754Z,9.418287
2023-02-11T10:32:18.625Z,9.418364
2023-02-11T10:33:18.650Z,9.418340
2023-02-11T10:34:18.613Z,9.418290
2023-02-11T10:35:18.653Z,9.418338
2023-02-11T10:36:18.592Z,9.418204
2023-02-11T10:37:18.611Z,9.418223
2023-02-11T10:38:19.015Z,9.418161
2023-02-11T10:39:18.567Z,9.418256
2023-02-11T10:40:20.037Z,9.418287
2023-02-11T10:41:18.562Z,9.418396
2023-02-11T10:42:18.558Z,9.418428
2023-02-11T10:43:18.559Z,9.418485
2023-02-11T10:44:18.533Z,9.418383
2023-02-11T10:45:19.540Z,9.418620
2023-02-11T10:46:18.567Z,9.418412
2023-02-11T10:47:18.522Z,9.418231
2023-02-11T10:48:18.555Z,9.417947
2023-02-11T10:49:18.511Z,9.417794
2023-02-11T10:50:18.514Z,9.418034
2023-02-11T10:51:18.507Z,9.418360
2023-02-11T10:52:18.512Z,9.418185
2023-02-11T10:53:18.494Z,9.418288
2023-02-11T10:54:18.481Z,9.418211
2023-02-11T10:55:18.509Z,9.418294
2023-02-11T10:56:18.501Z,9.418268
2023-02-11T10:57:18.470Z,9.418221
2023-02-11T10:58:18.451Z,9.418283
2023-02-11T10:59:21.137Z,9.418375
2023-02-11T11:00:19.458Z,9.418345
2023-02-11T11:01:24.361Z,9.418133
2023-02-11T11:02:19.418Z,9.418024
2023-02-11T11:03:18.435Z,9.418135
2023-02-11T11:04:18.477Z,9.418229
2023-02-11T11:05:18.418Z,9.418198
2023-02-11T11:06:18.411Z,9.418266
2023-02-11T11:07:18.391Z,9.418172
2023-02-11T11:08:18.399Z,9.417860
2023-02-11T11:09:18.423Z,9.418069
2023-02-11T11:10:18.369Z,9.418139
2023-02-11T11:11:18.375Z,9.418109
2023-02-11T11:12:18.371Z,9.417928
2023-02-11T11:13:18.356Z,9.417779
2023-02-11T11:14:18.351Z,9.418092
2023-02-11T11:15:18.347Z,9.417899
2023-02-11T11:16:18.455Z,9.417994
2023-02-11T11:17:18.326Z,9.417852
2023-02-11T11:18:23.191Z,9.418032
2023-02-11T11:19:20.327Z,9.418064
2023-02-11T11:20:18.315Z,9.418160
2023-02-11T11:21:18.312Z,9.418145
2023-02-11T11:22:18.288Z,9.418243
2023-02-11T11:23:18.299Z,9.418159
2023-02-11T11:24:18.274Z,9.418081
2023-02-11T11:25:18.305Z,9.417990
2023-02-11T11:26:18.443Z,9.418167
2023-02-11T11:27:18.255Z,9.418166
2023-02-11T11:28:18.291Z,9.418129
2023-02-11T11:29:18.249Z,9.418202
2023-02-11T11:30:18.242Z,9.418106
2023-02-11T11:31:18.424Z,9.418139
2023-02-11T11:32:20.458Z,9.418174
2023-02-11T11:33:19.237Z,9.418158
2023-02-11T11:34:18.207Z,9.418157
2023-02-11T11:35:18.218Z,9.418246
2023-02-11T11:36:18.256Z,9.418092
2023-02-11T11:37:18.189Z,9.418075
2023-02-11T11:38:18.189Z,9.418281
2023-02-11T11:39:18.199Z,9.417905
2023-02-11T11:40:18.167Z,9.417923
2023-02-11T11:41:18.172Z,9.418102
2023-02-11T11:42:18.163Z,9.418147
2023-02-11T11:43:18.141Z,9.418166
2023-02-11T11:44:18.149Z,9.418207